Terminal Aerodrome Forecast
Issued by NWS

Home | Current Version | Previous Version | Text Only | Print | Product List | Glossary On
Versions: 1 2 3 4 5 6 7 8 9 10 11 12 13 14 15 16 17 18 19 20 21 22 23 24
000
FTUS41 KILN 292341
TAFLUK
TAF
KLUK 292341Z 3000/3024 22008KT P6SM VCTS SCT040CB
      TEMPO 3000/3001 VRB12G20KT 4SM -TSRA SCT020 BKN030CB
     FM300100 24004KT P6SM SCT050 BKN100
     FM300400 VRB03KT P6SM FEW050
      TEMPO 3010/3012 5SM BR
     FM301400 31007KT P6SM SCT050
     FM302200 34003KT P6SM SKC=

USA.gov is the U.S. government's official web portal to all federal, state and local government web resources and services.